Terminal Aerodrome Forecast
Issued by NWS Indianapolis, IN

Home | Current Version | Previous Version | Text Only | Print | Product List | Glossary On
Versions: 1 2 3 4 5 6 7 8 9 10 11 12 13 14 15 16 17 18 19 20 21 22 23 24 25 26 27 28 29
000
FTUS43 KIND 262322
TAFIND
TAF
KIND 262322Z 2700/2806 10004KT P6SM VCTS SCT035CB BKN080
      TEMPO 2700/2701 4SM TSRA BKN025 OVC035CB
     FM270300 10004KT P6SM BKN100
     FM271400 16006KT P6SM SCT030 BKN100 PROB30 2714/2720 3SM TSRA
      OVC030CB
     FM272000 19006KT P6SM SCT030 BKN100=

USA.gov is the U.S. government's official web portal to all federal, state and local government web resources and services.